Time;durP1;ratioP1;P1;durP2;ratioP2;P2;SDS_P1;SDS_P2;PMS_P1;PMS_P2;Temp;Humidity;BMP_temperature;BMP_pressure;BME280_temperature;BME280_humidity;BME280_pressure;Samples;Min_cycle;Max_cycle;Signal;HPM_P1;HPM_P2
2021/01/11 00:01:34;;;;;;;33.93;23.47;;;;;;;1.48;54.27;98491.53;8465202;28;20293;-72
2021/01/11 00:05:37;;;;;;;25.53;22.70;;;;;;;1.47;54.29;98482.19;8464577;28;20328;-71
2021/01/11 00:09:39;;;;;;;27.30;23.37;;;;;;;1.55;54.00;98488.16;8465614;28;20201;-70
2021/01/11 00:13:41;;;;;;;26.93;22.87;;;;;;;1.46;54.26;98491.53;8464131;28;20233;-71
2021/01/11 00:17:43;;;;;;;26.90;21.73;;;;;;;1.31;54.12;98484.75;8463950;28;20205;-71
2021/01/11 00:21:46;;;;;;;26.73;21.87;;;;;;;1.30;54.33;98479.63;8464603;28;20304;-71
2021/01/11 00:25:48;;;;;;;25.60;22.53;;;;;;;1.29;54.71;98483.84;8464367;28;20261;-72
2021/01/11 00:29:50;;;;;;;26.77;22.70;;;;;;;1.38;54.75;98492.41;8465183;28;20645;-71
2021/01/11 00:33:52;;;;;;;29.33;23.70;;;;;;;1.42;54.38;98486.44;8465085;28;20447;-71
2021/01/11 00:37:55;;;;;;;26.80;23.90;;;;;;;1.60;54.43;98495.78;8462447;28;20412;-71
2021/01/11 00:41:58;;;;;;;24.50;21.47;;;;;;;1.53;54.67;98497.50;8464524;28;20206;-72
2021/01/11 00:45:59;;;;;;;25.27;22.07;;;;;;;1.58;55.86;98502.59;8464317;28;20234;-71
2021/01/11 00:50:01;;;;;;;32.90;25.37;;;;;;;1.45;57.48;98506.88;8462617;28;20213;-71
2021/01/11 00:54:04;;;;;;;43.53;26.27;;;;;;;1.59;58.86;98507.72;8463227;28;20507;-71
2021/01/11 00:58:06;;;;;;;36.47;30.23;;;;;;;2.16;57.08;98515.34;8461056;28;20527;-74
2021/01/11 01:02:08;;;;;;;49.47;28.43;;;;;;;1.73;58.31;98516.25;8464318;28;20648;-74
2021/01/11 01:06:11;;;;;;;50.87;28.07;;;;;;;1.68;58.96;98517.09;8455061;28;20218;-74
2021/01/11 01:10:15;;;;;;;35.90;26.10;;;;;;;1.68;58.85;98520.50;8463065;28;20637;-73
2021/01/11 01:14:17;;;;;;;112.77;28.87;;;;;;;1.53;58.59;98515.38;8462676;28;20546;-74
2021/01/11 01:18:18;;;;;;;42.87;27.10;;;;;;;1.71;58.60;98524.72;8461598;28;20242;-74
2021/01/11 01:22:20;;;;;;;54.43;26.87;;;;;;;1.54;58.82;98529.81;8461506;28;20205;-74
2021/01/11 01:26:23;;;;;;;97.90;28.90;;;;;;;1.36;58.88;98518.75;8462825;28;20282;-74
2021/01/11 01:30:31;;;;;;;49.53;28.80;;;;;;;1.40;59.06;98521.31;8462513;28;20225;-74
2021/01/11 01:34:33;;;;;;;77.70;28.27;;;;;;;1.38;58.68;98523.88;8462382;28;20197;-73
2021/01/11 01:38:35;;;;;;;76.73;29.07;;;;;;;1.41;58.91;98530.66;8461169;28;20387;-74
2021/01/11 01:42:37;;;;;;;68.03;28.77;;;;;;;1.36;59.29;98533.22;8462525;28;20197;-74
2021/01/11 01:46:39;;;;;;;47.40;27.90;;;;;;;1.48;58.94;98524.72;8462138;28;20278;-74
2021/01/11 01:50:41;;;;;;;79.23;28.77;;;;;;;1.39;58.75;98525.59;8460985;28;20342;-74
2021/01/11 01:54:43;;;;;;;55.67;28.63;;;;;;;1.31;59.50;98528.13;8461264;28;20548;-74
2021/01/11 01:58:47;;;;;;;40.87;27.43;;;;;;;1.45;58.88;98517.09;8462198;28;20233;-74
2021/01/11 02:02:49;;;;;;;59.37;26.63;;;;;;;1.17;58.93;98515.31;8465260;28;20205;-74
2021/01/11 02:06:53;;;;;;;44.83;28.17;;;;;;;1.28;58.96;98505.16;8467942;28;20222;-74
2021/01/11 02:11:10;;;;;;;67.70;26.17;;;;;;;1.44;58.02;98502.59;8467901;28;20510;-74
2021/01/11 02:15:14;;;;;;;40.90;27.50;;;;;;;1.41;58.69;98493.25;8467883;28;20508;-74
2021/01/11 02:19:53;;;;;;;69.03;26.77;;;;;;;0.95;58.64;98501.69;8467989;28;20201;-74
2021/01/11 02:24:30;;;;;;;35.50;26.17;;;;;;;1.28;58.37;98481.34;8479489;27;20664;-73
2021/01/11 02:29:02;;;;;;;31.07;24.03;;;;;;;1.35;57.51;98483.03;8501437;27;20190;-74
2021/01/11 02:33:06;;;;;;;30.17;23.27;;;;;;;1.38;56.75;98485.59;8501481;27;20185;-74
2021/01/11 02:37:08;;;;;;;31.33;23.43;;;;;;;1.34;56.59;98497.50;8500379;27;20201;-74
2021/01/11 02:41:10;;;;;;;30.97;23.33;;;;;;;1.25;57.20;98494.91;8500376;27;20212;-74
2021/01/11 02:45:12;;;;;;;30.07;23.33;;;;;;;1.26;57.70;98488.13;8501241;27;20227;-74
2021/01/11 02:49:23;;;;;;;39.40;24.37;;;;;;;1.23;57.22;98488.97;8500032;27;20370;-74
2021/01/11 02:53:38;;;;;;;31.27;23.47;;;;;;;1.28;57.11;98502.59;8501642;27;20197;-74
2021/01/11 02:57:46;;;;;;;35.40;24.33;;;;;;;1.15;57.42;98506.81;8501040;27;20233;-74
2021/01/11 03:01:51;;;;;;;36.97;24.17;;;;;;;1.25;57.85;98500.03;8500777;27;20269;-74
2021/01/11 03:05:54;;;;;;;31.50;23.70;;;;;;;1.32;58.02;98495.78;8500650;27;20220;-73
2021/01/11 03:09:56;;;;;;;30.90;23.37;;;;;;;1.11;57.79;98486.41;8500676;27;20216;-73
2021/01/11 03:13:57;;;;;;;28.73;23.37;;;;;;;1.12;57.92;98481.31;8498906;27;20270;-73
2021/01/11 03:17:59;;;;;;;97.30;48.53;;;;;;;0.68;59.18;98476.09;8498503;27;20200;-73
2021/01/11 03:22:02;;;;;;;29.70;22.83;;;;;;;1.10;58.18;98474.50;8500252;27;20306;-73
2021/01/11 03:26:04;;;;;;;30.70;22.67;;;;;;;1.13;58.61;98477.91;8500147;27;20312;-74
2021/01/11 03:30:07;;;;;;;41.80;24.03;;;;;;;0.97;58.13;98483.81;8500220;27;20212;-73
2021/01/11 03:34:09;;;;;;;89.27;24.77;;;;;;;0.49;59.65;98473.47;8499739;27;20662;-73
2021/01/11 03:38:12;;;;;;;48.23;23.43;;;;;;;0.83;58.74;98475.28;8498545;27;20209;-74
2021/01/11 03:42:14;;;;;;;30.77;23.47;;;;;;;0.81;59.50;98475.28;8499905;27;20526;-73
2021/01/11 03:46:17;;;;;;;35.87;25.23;;;;;;;0.89;58.44;98475.28;8498672;27;20217;-74
2021/01/11 03:50:19;;;;;;;29.40;23.27;;;;;;;1.00;58.50;98472.78;8498816;27;20289;-74
2021/01/11 03:54:22;;;;;;;30.00;23.73;;;;;;;1.04;57.19;98477.88;8498336;27;20197;-73
2021/01/11 03:58:23;;;;;;;29.80;24.37;;;;;;;0.98;57.49;98477.88;8499114;27;20320;-73
2021/01/11 04:02:25;;;;;;;30.77;24.23;;;;;;;1.11;56.85;98476.19;8496463;27;20212;-73
2021/01/11 04:06:27;;;;;;;32.43;24.97;;;;;;;0.90;57.61;98479.56;8498641;27;20228;-73
2021/01/11 04:10:30;;;;;;;29.57;23.93;;;;;;;1.04;57.39;98477.88;8498259;27;20528;-73
2021/01/11 04:14:32;;;;;;;29.80;23.60;;;;;;;0.99;56.62;98459.19;8498111;27;20221;-73
2021/01/11 04:18:34;;;;;;;32.20;25.23;;;;;;;0.91;57.04;98465.94;8498470;27;20193;-73
2021/01/11 04:22:36;;;;;;;30.50;23.23;;;;;;;0.93;57.36;98461.69;8498004;27;20208;-73
2021/01/11 04:26:38;;;;;;;33.10;24.67;;;;;;;0.92;57.45;98465.97;8497464;27;20228;-73
2021/01/11 04:30:40;;;;;;;42.30;25.30;;;;;;;0.87;56.87;98467.63;8498488;27;20271;-73
2021/01/11 04:34:42;;;;;;;33.73;22.77;;;;;;;0.88;57.10;98473.59;8497957;27;20229;-73
2021/01/11 04:38:44;;;;;;;60.00;26.03;;;;;;;0.74;57.10;98468.44;8497485;27;20197;-73
2021/01/11 04:42:51;;;;;;;36.20;23.23;;;;;;;0.74;56.28;98471.88;8497306;27;20201;-73
2021/01/11 04:46:53;;;;;;;38.07;25.63;;;;;;;0.73;55.70;98469.31;8498360;27;20220;-73
2021/01/11 04:50:55;;;;;;;33.07;25.30;;;;;;;0.90;56.07;98464.25;8497460;27;20200;-73
2021/01/11 04:55:01;;;;;;;36.50;24.80;;;;;;;0.64;55.95;98479.47;8496453;27;20204;-74
2021/01/11 04:59:04;;;;;;;37.07;26.20;;;;;;;0.71;55.71;98465.91;8497102;27;20212;-73
2021/01/11 05:03:07;;;;;;;35.27;26.43;;;;;;;0.75;54.95;98471.00;8497737;27;20477;-73
2021/01/11 05:07:09;;;;;;;38.03;26.97;;;;;;;0.65;55.48;98473.50;8496986;27;20271;-74
2021/01/11 05:11:12;;;;;;;39.70;29.07;;;;;;;0.67;55.40;98476.94;8496712;27;20213;-74
2021/01/11 05:15:18;;;;;;;37.27;27.97;;;;;;;0.69;55.40;98475.25;8497113;27;20205;-73
2021/01/11 05:19:24;;;;;;;39.53;29.10;;;;;;;0.62;55.87;98476.06;8498125;27;20600;-73
2021/01/11 05:23:25;;;;;;;38.50;28.90;;;;;;;0.58;55.44;98477.75;8496100;27;20216;-73
2021/01/11 05:27:27;;;;;;;36.60;27.57;;;;;;;0.57;55.25;98473.50;8496044;27;20224;-73
2021/01/11 05:31:53;;;;;;;36.57;26.80;;;;;;;0.68;55.05;98466.72;8496770;27;20213;-73
2021/01/11 05:36:04;;;;;;;36.83;27.63;;;;;;;0.57;55.46;98469.25;8496422;27;20196;-73
2021/01/11 05:40:17;;;;;;;35.37;26.97;;;;;;;0.63;55.57;98459.91;8502965;27;20212;-73
2021/01/11 05:44:22;;;;;;;32.97;24.80;;;;;;;0.39;55.97;98456.44;8504104;27;20283;-73
2021/01/11 05:48:25;;;;;;;35.30;25.37;;;;;;;0.30;56.23;98459.78;8503150;27;20196;-73
2021/01/11 05:52:31;;;;;;;38.27;25.17;;;;;;;0.46;56.15;98468.38;8503916;27;20596;-73
2021/01/11 05:56:51;;;;;;;31.13;24.63;;;;;;;0.45;56.18;98471.75;8503030;27;20229;-73
2021/01/11 06:00:53;;;;;;;31.73;24.63;;;;;;;0.50;56.47;98466.69;8503698;27;20185;-74
2021/01/11 06:04:56;;;;;;;33.60;23.57;;;;;;;0.52;56.58;98472.63;8503619;27;20771;-73
2021/01/11 06:08:57;;;;;;;35.07;23.77;;;;;;;0.33;57.11;98477.66;8503334;27;20251;-73
2021/01/11 06:12:59;;;;;;;38.17;22.87;;;;;;;0.44;56.33;98467.50;8502097;27;20221;-73
2021/01/11 06:17:01;;;;;;;29.80;23.67;;;;;;;0.32;56.24;98470.84;8503559;27;20205;-73
2021/01/11 06:21:04;;;;;;;28.70;22.70;;;;;;;0.36;56.91;98470.03;8502073;27;20204;-73
2021/01/11 06:25:32;;;;;;;30.83;22.27;;;;;;;0.60;55.85;98473.50;8503330;27;20249;-73
2021/01/11 06:29:34;;;;;;;29.90;23.23;;;;;;;0.57;55.82;98473.50;8502305;27;20185;-73
2021/01/11 06:33:36;;;;;;;32.80;23.33;;;;;;;0.33;56.04;98475.09;8501968;27;20205;-73
2021/01/11 06:37:39;;;;;;;33.10;23.43;;;;;;;0.46;55.53;98480.22;8503107;27;20213;-73
2021/01/11 06:41:41;;;;;;;27.13;22.13;;;;;;;0.45;55.29;98473.44;8486624;27;20197;-73
2021/01/11 06:45:43;;;;;;;25.97;22.33;;;;;;;0.33;55.70;98476.81;8500755;27;20224;-73
2021/01/11 06:49:47;;;;;;;26.83;22.23;;;;;;;0.42;55.43;98481.06;8472904;27;20236;-73
2021/01/11 06:54:06;;;;;;;27.23;21.93;;;;;;;0.47;55.74;98472.59;8484486;27;20204;-73
2021/01/11 06:58:08;;;;;;;25.23;21.63;;;;;;;0.47;55.83;98479.41;8477238;27;20698;-72
2021/01/11 07:02:31;;;;;;;32.60;22.93;;;;;;;0.12;56.80;98475.84;8497369;27;20198;-72
2021/01/11 07:06:37;;;;;;;29.40;22.40;;;;;;;-0.12;57.64;98479.09;8462880;28;20567;-73
2021/01/11 07:10:41;;;;;;;32.90;20.57;;;;;;;0.08;57.61;98478.38;8467975;28;20216;-73
2021/01/11 07:14:54;;;;;;;28.33;22.90;;;;;;;-0.11;58.07;98483.34;8467595;28;20309;-72
2021/01/11 07:18:56;;;;;;;25.87;21.20;;;;;;;0.01;57.15;98486.81;8466870;28;20189;-72
2021/01/11 07:22:58;;;;;;;27.27;22.20;;;;;;;-0.30;57.34;98482.38;8467286;28;20246;-72
2021/01/11 07:27:01;;;;;;;30.87;22.00;;;;;;;-0.15;57.02;98481.63;8465910;28;20222;-72
2021/01/11 07:31:03;;;;;;;32.03;20.87;;;;;;;-0.62;58.89;98485.50;8465703;28;20201;-72
2021/01/11 07:35:06;;;;;;;30.43;23.07;;;;;;;-0.81;59.48;98496.34;8465580;28;20218;-72
2021/01/11 07:39:14;;;;;;;26.13;22.17;;;;;;;-0.15;58.24;98499.44;8466636;28;20630;-72
2021/01/11 07:43:24;;;;;;;26.70;21.57;;;;;;;-0.18;57.95;98501.13;8466067;28;20471;-73
2021/01/11 07:47:26;;;;;;;24.87;20.70;;;;;;;-0.09;57.25;98502.03;8466424;28;20324;-72
2021/01/11 07:51:29;;;;;;;25.97;20.43;;;;;;;0.13;57.25;98514.88;8465731;28;20277;-72
2021/01/11 07:55:34;;;;;;;23.13;20.40;;;;;;;0.16;56.16;98497.09;8480769;27;20254;-72
2021/01/11 07:59:36;;;;;;;23.00;19.03;;;;;;;0.38;56.13;98501.47;8499456;27;20499;-73
2021/01/11 08:03:39;;;;;;;24.17;19.60;;;;;;;0.21;55.73;98513.25;8498578;27;20225;-73
2021/01/11 08:07:41;;;;;;;28.07;20.73;;;;;;;0.16;56.20;98514.91;8498539;27;20275;-73
2021/01/11 08:11:43;;;;;;;22.27;18.70;;;;;;;0.33;55.80;98497.19;8499310;27;20227;-74
2021/01/11 08:15:46;;;;;;;23.27;20.07;;;;;;;0.29;56.00;98503.13;8497630;27;20201;-74
2021/01/11 08:19:51;;;;;;;24.70;20.27;;;;;;;0.07;56.70;98513.16;8497662;27;20262;-73
2021/01/11 08:24:00;;;;;;;24.17;19.43;;;;;;;0.04;56.72;98505.53;8497679;27;20639;-73
2021/01/11 08:28:03;;;;;;;30.53;21.30;;;;;;;0.23;56.15;98508.16;8497348;27;20220;-74
2021/01/11 08:32:07;;;;;;;23.20;20.30;;;;;;;0.39;55.12;98509.94;8495070;27;20640;-73
2021/01/11 08:36:17;;;;;;;26.73;19.20;;;;;;;4.17;73.25;98509.88;8494940;27;20224;-76
2021/01/11 08:40:27;;;;;;;23.00;20.07;;;;;;;2.74;50.86;98498.94;8497318;27;20270;-73
2021/01/11 08:44:31;;;;;;;22.33;19.93;;;;;;;1.77;53.15;98499.19;8497749;27;20200;-74
2021/01/11 08:48:34;;;;;;;23.47;20.53;;;;;;;1.51;54.13;98494.09;8488738;27;20201;-73
2021/01/11 08:52:36;;;;;;;22.10;19.80;;;;;;;1.21;54.17;98492.38;8462787;28;20208;-74
2021/01/11 08:56:38;;;;;;;25.10;20.87;;;;;;;1.23;54.92;98509.38;8461803;27;20284;-71
2021/01/11 09:00:40;;;;;;;22.03;19.70;;;;;;;1.31;54.67;98512.81;8490930;27;20231;-71
2021/01/11 09:04:43;;;;;;;23.03;20.53;;;;;;;1.14;54.25;98529.75;8484886;27;20252;-75
2021/01/11 09:08:44;;;;;;;23.07;20.60;;;;;;;1.12;54.52;98537.44;8482695;27;20193;-74
2021/01/11 09:12:46;;;;;;;22.87;20.40;;;;;;;1.20;54.47;98539.13;8485782;27;20240;-74
2021/01/11 09:16:56;;;;;;;28.73;24.57;;;;;;;1.05;54.20;98543.38;8495515;27;20656;-75
2021/01/11 09:20:58;;;;;;;24.03;21.13;;;;;;;1.03;55.32;98542.50;8469147;28;20198;-76
2021/01/11 09:25:05;;;;;;;23.80;21.13;;;;;;;0.95;54.98;98539.06;8462027;28;20225;-76
2021/01/11 09:29:08;;;;;;;26.10;23.00;;;;;;;0.82;55.02;98528.00;8475663;27;20237;-76
2021/01/11 09:33:10;;;;;;;25.03;22.33;;;;;;;0.47;56.24;98521.03;8460818;28;20198;-74
2021/01/11 09:37:14;;;;;;;25.03;22.33;;;;;;;0.89;55.72;98516.09;8489250;28;20257;-77
2021/01/11 09:41:16;;;;;;;24.57;21.33;;;;;;;1.15;54.99;98514.47;8495352;28;20515;-76
2021/01/11 09:45:19;;;;;;;24.03;21.43;;;;;;;1.44;54.77;98520.47;8495480;28;20504;-74
2021/01/11 09:49:21;;;;;;;24.93;22.13;;;;;;;1.47;54.17;98520.50;8495679;28;20201;-75
2021/01/11 09:53:24;;;;;;;24.10;21.37;;;;;;;0.93;55.44;98526.34;8494781;28;20200;-73
2021/01/11 09:57:26;;;;;;;24.13;21.63;;;;;;;1.05;55.63;98537.38;8486083;27;20228;-73
2021/01/11 10:01:39;;;;;;;24.10;21.30;;;;;;;0.92;55.27;98533.97;8495106;28;20675;-73
2021/01/11 10:05:41;;;;;;;27.30;24.60;;;;;;;1.62;54.07;98535.81;8493704;28;20626;-64
2021/01/11 10:09:43;;;;;;;26.10;23.33;;;;;;;0.98;54.95;98529.72;8495868;28;20658;-65
2021/01/11 10:13:45;;;;;;;25.33;22.53;;;;;;;1.19;55.43;98529.78;8494928;28;20225;-64
2021/01/11 10:17:47;;;;;;;24.00;21.50;;;;;;;1.48;54.87;98522.16;8472974;28;20212;-65
2021/01/11 10:21:52;;;;;;;26.27;21.07;;;;;;;1.37;55.23;98524.69;8479644;28;20217;-64
2021/01/11 10:25:55;;;;;;;22.93;20.10;;;;;;;0.84;55.62;98530.53;8502038;27;20224;-66
2021/01/11 10:29:57;;;;;;;22.80;20.30;;;;;;;0.93;56.27;98535.66;8501316;27;20204;-64
2021/01/11 10:33:59;;;;;;;23.10;20.70;;;;;;;1.18;56.19;98523.81;8501676;27;20644;-64
2021/01/11 10:38:01;;;;;;;25.10;21.33;;;;;;;0.47;58.00;98528.66;8501047;27;20212;-65
2021/01/11 10:42:04;;;;;;;22.37;19.97;;;;;;;1.21;54.91;98521.28;8501321;27;20216;-75
2021/01/11 10:46:06;;;;;;;23.53;20.60;;;;;;;1.41;55.27;98517.91;8503682;27;20609;-73
2021/01/11 10:50:09;;;;;;;26.33;23.73;;;;;;;1.79;53.63;98505.19;8481844;27;20426;-78
2021/01/11 10:54:11;;;;;;;23.53;20.43;;;;;;;1.38;55.59;98506.00;8478233;27;20194;-77
2021/01/11 10:58:14;;;;;;;23.00;19.47;;;;;;;1.43;56.36;98501.75;8473145;28;20229;-78
2021/01/11 11:02:16;;;;;;;23.93;21.37;;;;;;;1.90;54.53;98490.66;8467638;28;20299;-77
2021/01/11 11:06:20;;;;;;;25.93;21.80;;;;;;;2.08;54.33;98489.81;8468991;28;20241;-77
2021/01/11 11:10:22;;;;;;;24.07;20.77;;;;;;;1.53;55.96;98494.97;8465394;28;20198;-78
2021/01/11 11:14:25;;;;;;;22.10;19.70;;;;;;;1.50;55.56;98480.47;8465945;28;20220;-77
2021/01/11 11:18:26;;;;;;;22.37;19.60;;;;;;;1.75;55.57;98483.91;8467340;28;20205;-76
2021/01/11 11:22:28;;;;;;;23.47;20.97;;;;;;;1.66;55.52;98495.81;8471913;27;20300;-74
2021/01/11 11:26:30;;;;;;;22.40;20.10;;;;;;;1.56;55.88;98490.72;8495969;27;20217;-74
2021/01/11 11:30:32;;;;;;;22.63;20.23;;;;;;;1.97;54.76;98488.13;8468934;28;20202;-74
2021/01/11 11:34:34;;;;;;;23.63;20.97;;;;;;;1.72;55.71;98483.03;8467361;28;20544;-74
2021/01/11 11:38:36;;;;;;;22.80;20.33;;;;;;;2.14;54.83;98465.94;8470102;28;20217;-78
2021/01/11 11:42:38;;;;;;;23.60;19.87;;;;;;;2.63;53.33;98468.34;8472633;28;20335;-76
2021/01/11 11:46:41;;;;;;;23.37;20.23;;;;;;;2.60;53.25;98462.38;8471373;28;20226;-77
2021/01/11 11:50:43;;;;;;;22.40;20.00;;;;;;;2.43;54.60;98470.94;8471551;28;20284;-76
2021/01/11 11:54:45;;;;;;;19.87;17.77;;;;;;;2.65;53.37;98476.84;8469909;28;20208;-77
2021/01/11 11:58:46;;;;;;;22.23;19.23;;;;;;;2.63;53.10;98460.66;8465401;28;20197;-76
2021/01/11 12:02:49;;;;;;;20.70;18.50;;;;;;;2.54;53.78;98453.03;8466288;28;20198;-76
2021/01/11 12:06:51;;;;;;;22.17;19.87;;;;;;;2.42;52.88;98430.91;8464644;28;20298;-77
2021/01/11 12:10:53;;;;;;;22.20;19.50;;;;;;;2.45;53.95;98432.59;8463634;28;20598;-77
2021/01/11 12:14:54;;;;;;;21.23;19.03;;;;;;;2.73;54.00;98441.84;8470431;27;20197;-77
2021/01/11 12:18:57;;;;;;;23.20;20.90;;;;;;;3.24;51.54;98422.78;8496277;27;20430;-68
2021/01/11 12:22:59;;;;;;;21.57;19.27;;;;;;;2.64;54.40;98407.78;8497746;27;20438;-68
2021/01/11 12:27:01;;;;;;;22.10;19.17;;;;;;;2.44;53.91;98395.13;8498193;27;20595;-67
2021/01/11 12:31:02;;;;;;;22.13;19.73;;;;;;;2.57;54.29;98386.53;8498689;27;20201;-68
2021/01/11 12:35:07;;;;;;;22.27;19.40;;;;;;;2.78;54.30;98390.69;8497465;27;20221;-68
2021/01/11 12:39:10;;;;;;;21.97;19.17;;;;;;;2.87;54.00;98385.47;8495883;27;20197;-68
2021/01/11 12:43:12;;;;;;;21.83;19.53;;;;;;;3.04;53.44;98382.78;8495980;27;20276;-68
2021/01/11 12:47:15;;;;;;;21.70;19.40;;;;;;;3.15;53.59;98389.56;8489822;27;20385;-68
2021/01/11 12:51:18;;;;;;;22.33;19.87;;;;;;;2.93;54.20;98380.34;8496314;27;20229;-67
2021/01/11 12:55:20;;;;;;;22.07;19.00;;;;;;;3.06;54.43;98373.41;8498345;27;20558;-68
2021/01/11 12:59:22;;;;;;;21.50;19.20;;;;;;;3.12;53.81;98359.72;8500549;27;20208;-78
2021/01/11 13:03:24;;;;;;;22.03;18.33;;;;;;;3.38;53.46;98361.22;8500923;27;20198;-78
2021/01/11 13:07:27;;;;;;;21.87;19.53;;;;;;;3.73;53.26;98355.72;8504762;27;20225;-73
2021/01/11 13:11:30;;;;;;;31.38;24.95;;;;;;;3.20;52.97;98354.53;8496451;27;20423;-73
2021/01/11 13:15:32;;;;;;;22.63;20.17;;;;;;;3.34;54.11;98332.22;8497456;27;20346;-73
2021/01/11 13:19:33;;;;;;;24.30;21.67;;;;;;;2.60;55.64;98339.63;8496857;27;20209;-71
2021/01/11 13:23:36;;;;;;;25.33;21.20;;;;;;;3.17;54.48;98334.09;8496914;27;20230;-70
2021/01/11 13:27:38;;;;;;;25.17;22.47;;;;;;;2.62;54.96;98333.63;8498227;27;20658;-73
2021/01/11 13:31:44;;;;;;;26.47;23.23;;;;;;;3.02;54.96;98324.81;8498128;27;20201;-72
2021/01/11 13:35:46;;;;;;;26.63;22.40;;;;;;;3.13;54.90;98336.66;8497315;28;20601;-72
2021/01/11 13:39:49;;;;;;;27.13;23.53;;;;;;;3.18;54.96;98333.22;8498700;28;20204;-73
2021/01/11 13:43:50;;;;;;;26.27;22.20;;;;;;;3.07;55.10;98331.59;8497384;28;20635;-72
2021/01/11 13:47:52;;;;;;;25.70;22.63;;;;;;;3.24;54.52;98333.19;8496812;28;20227;-72
2021/01/11 13:51:55;;;;;;;28.17;23.23;;;;;;;2.86;55.12;98327.50;8496574;28;20201;-72
2021/01/11 13:55:57;;;;;;;28.83;23.40;;;;;;;3.00;54.70;98337.63;8497532;28;20231;-73
2021/01/11 13:59:59;;;;;;;29.03;24.27;;;;;;;2.92;54.81;98326.63;8503351;27;20193;-72
2021/01/11 14:04:01;;;;;;;29.23;24.27;;;;;;;3.07;54.79;98323.09;8504631;27;20201;-72
2021/01/11 14:08:03;;;;;;;29.20;24.87;;;;;;;3.06;54.38;98326.50;8503488;27;20224;-72
2021/01/11 14:12:06;;;;;;;30.13;25.40;;;;;;;2.91;55.17;98333.44;8503938;27;20683;-73
2021/01/11 14:16:08;;;;;;;29.00;24.47;;;;;;;2.69;54.95;98331.91;8482475;27;20205;-73
2021/01/11 14:20:13;;;;;;;31.63;25.10;;;;;;;2.82;55.38;98317.28;8461428;28;20268;-72
2021/01/11 14:24:14;;;;;;;28.17;24.37;;;;;;;2.98;55.13;98312.94;8468769;28;20193;-72
2021/01/11 14:28:17;;;;;;;30.33;25.90;;;;;;;2.81;55.14;98325.84;8468559;28;20222;-72
2021/01/11 14:32:19;;;;;;;32.73;26.00;;;;;;;2.89;54.89;98314.72;8468513;28;20202;-72
2021/01/11 14:36:21;;;;;;;30.77;26.40;;;;;;;2.52;55.71;98306.44;8469220;28;20201;-71
2021/01/11 14:40:23;;;;;;;32.83;27.03;;;;;;;2.48;55.79;98297.94;8468465;28;20201;-72
2021/01/11 14:44:26;;;;;;;30.47;25.37;;;;;;;2.72;55.45;98303.72;8468766;28;20654;-71
2021/01/11 14:48:28;;;;;;;30.30;25.53;;;;;;;2.42;55.89;98304.78;8468589;28;20225;-72
2021/01/11 14:52:30;;;;;;;31.33;25.70;;;;;;;2.49;55.43;98297.06;8468908;28;20194;-72
2021/01/11 14:56:31;;;;;;;30.90;25.20;;;;;;;2.60;55.00;98288.50;8467687;28;20229;-72
2021/01/11 15:00:35;;;;;;;35.07;26.57;;;;;;;2.32;56.06;98294.66;8468080;28;20202;-72
2021/01/11 15:04:37;;;;;;;30.03;25.57;;;;;;;2.57;55.77;98288.50;8467170;28;20234;-68
2021/01/11 15:08:39;;;;;;;31.47;25.63;;;;;;;2.67;54.97;98293.56;8466055;28;20222;-69
2021/01/11 15:12:41;;;;;;;30.70;25.30;;;;;;;2.64;54.98;98283.34;8465748;28;20218;-68
2021/01/11 15:16:44;;;;;;;27.97;23.90;;;;;;;2.58;55.28;98283.38;8466339;28;20228;-69
2021/01/11 15:20:46;;;;;;;29.03;24.70;;;;;;;2.60;55.01;98278.25;8467719;28;20197;-69
2021/01/11 15:24:47;;;;;;;28.70;24.27;;;;;;;2.65;55.09;98279.94;8467431;28;20220;-68
2021/01/11 15:28:49;;;;;;;28.53;23.50;;;;;;;2.62;54.70;98282.50;8467099;28;20218;-68
2021/01/11 15:32:52;;;;;;;27.87;24.87;;;;;;;2.72;54.84;98279.03;8467324;28;20612;-68
2021/01/11 15:36:54;;;;;;;26.13;22.70;;;;;;;2.58;54.83;98290.22;8467796;28;20553;-69
2021/01/11 15:40:55;;;;;;;24.53;21.93;;;;;;;2.59;54.68;98291.91;8466694;28;20525;-68
2021/01/11 15:44:57;;;;;;;25.80;21.73;;;;;;;2.70;54.18;98283.31;8466438;28;20202;-74
2021/01/11 15:49:01;;;;;;;26.23;22.13;;;;;;;2.65;54.03;98290.16;8467288;28;20262;-72
2021/01/11 15:53:03;;;;;;;24.97;21.57;;;;;;;2.54;54.52;98285.09;8466131;28;20213;-72
2021/01/11 15:57:05;;;;;;;25.27;21.80;;;;;;;2.52;54.85;98275.75;8467119;28;20234;-73
2021/01/11 16:01:07;;;;;;;24.07;21.13;;;;;;;2.57;54.12;98273.16;8465744;28;20209;-74
2021/01/11 16:05:12;;;;;;;25.77;22.43;;;;;;;2.56;54.18;98276.59;8456898;28;20210;-75
2021/01/11 16:09:14;;;;;;;26.47;23.23;;;;;;;2.50;54.09;98282.59;8464633;28;20198;-74
2021/01/11 16:13:16;;;;;;;26.90;22.73;;;;;;;2.52;54.13;98286.84;8465987;28;20218;-72
2021/01/11 16:17:18;;;;;;;25.40;22.70;;;;;;;2.56;54.11;98287.66;8465225;28;20213;-74
2021/01/11 16:21:22;;;;;;;28.93;25.13;;;;;;;2.17;54.41;98289.63;8463810;28;20292;-73
2021/01/11 16:25:24;;;;;;;26.17;23.40;;;;;;;2.28;54.33;98275.06;8464416;28;20202;-74
2021/01/11 16:29:25;;;;;;;26.70;23.80;;;;;;;2.18;54.44;98275.13;8461052;28;20213;-74
2021/01/11 16:33:27;;;;;;;29.90;25.77;;;;;;;2.25;53.88;98269.97;8464547;28;20198;-74
2021/01/11 16:37:30;;;;;;;30.90;25.87;;;;;;;2.32;54.08;98268.22;8464602;27;20288;-75
2021/01/11 16:41:33;;;;;;;30.67;26.33;;;;;;;1.90;54.88;98265.88;8497113;27;20212;-74
2021/01/11 16:45:35;;;;;;;29.57;25.67;;;;;;;1.96;54.38;98267.56;8497672;27;20197;-74
2021/01/11 16:49:38;;;;;;;31.93;28.33;;;;;;;2.09;53.90;98258.97;8498287;27;20277;-74
2021/01/11 16:53:41;;;;;;;32.57;27.07;;;;;;;2.05;54.00;98262.41;8497354;27;20602;-73
2021/01/11 16:57:44;;;;;;;31.07;26.40;;;;;;;2.01;53.97;98252.22;8496313;27;20241;-72
2021/01/11 17:01:45;;;;;;;31.37;26.50;;;;;;;2.03;53.66;98258.19;8496298;27;20208;-73
2021/01/11 17:05:48;;;;;;;29.60;25.40;;;;;;;1.95;53.45;98271.00;8462801;27;20233;-73
2021/01/11 17:09:51;;;;;;;32.57;27.13;;;;;;;1.54;54.43;98279.66;8490397;27;20238;-73
2021/01/11 17:13:57;;;;;;;31.33;26.03;;;;;;;1.68;54.21;98277.06;8496823;27;20224;-73
2021/01/11 17:17:59;;;;;;;32.65;29.35;;;;;;;2.37;52.31;98280.97;8494989;27;20440;-72
2021/01/11 17:22:01;;;;;;;30.83;27.27;;;;;;;2.05;53.00;98274.34;8496678;27;20207;-72
2021/01/11 17:26:04;;;;;;;33.10;27.97;;;;;;;1.97;53.29;98271.84;8497345;27;20221;-71
2021/01/11 17:30:07;;;;;;;33.10;26.53;;;;;;;2.00;53.14;98270.97;8495753;27;20249;-71
2021/01/11 17:34:09;;;;;;;30.80;25.57;;;;;;;1.55;52.97;98264.34;8497363;27;20514;-71
2021/01/11 17:38:11;;;;;;;27.20;24.30;;;;;;;1.71;52.75;98262.59;8497925;28;20227;-71
2021/01/11 17:42:14;;;;;;;28.70;24.87;;;;;;;1.55;53.12;98268.59;8498540;28;20197;-72
2021/01/11 17:46:17;;;;;;;28.60;24.50;;;;;;;1.57;53.46;98266.91;8497734;28;20271;-72
2021/01/11 17:50:19;;;;;;;30.30;25.67;;;;;;;1.47;53.51;98255.88;8498003;28;20612;-72
2021/01/11 17:54:21;;;;;;;30.97;25.37;;;;;;;1.41;53.37;98263.56;8497095;28;20261;-72
2021/01/11 17:58:24;;;;;;;29.20;24.00;;;;;;;1.59;53.57;98262.63;8497650;28;20239;-72
2021/01/11 18:02:26;;;;;;;34.57;27.07;;;;;;;1.66;53.36;98273.69;8497504;28;20213;-72
2021/01/11 18:06:29;;;;;;;30.40;25.53;;;;;;;1.36;53.58;98258.44;8497442;28;20359;-72
2021/01/11 18:10:31;;;;;;;30.80;25.13;;;;;;;1.62;53.49;98264.31;8496602;28;20201;-72
2021/01/11 18:14:33;;;;;;;30.83;26.47;;;;;;;1.68;52.83;98249.00;8497150;28;20225;-72
2021/01/11 18:18:36;;;;;;;29.07;24.97;;;;;;;1.58;53.12;98247.31;8489158;28;20266;-71
2021/01/11 18:22:38;;;;;;;29.63;24.20;;;;;;;1.56;53.27;98254.97;8479747;27;20350;-72
2021/01/11 18:26:41;;;;;;;30.83;25.53;;;;;;;1.66;52.83;98246.44;8486251;27;20244;-72
2021/01/11 18:30:52;;;;;;;31.40;24.93;;;;;;;0.70;54.97;98244.94;8494132;28;20193;-72
2021/01/11 18:34:54;;;;;;;30.53;24.80;;;;;;;1.29;53.84;98245.72;8472781;28;20202;-72
2021/01/11 18:38:57;;;;;;;34.47;25.50;;;;;;;0.89;54.87;98248.34;8487700;28;20612;-72
2021/01/11 18:42:59;;;;;;;31.20;25.50;;;;;;;1.07;53.66;98258.53;8479858;28;20210;-71
2021/01/11 18:47:02;;;;;;;30.43;25.40;;;;;;;1.01;54.31;98252.56;8470656;28;20637;-71
2021/01/11 18:51:04;;;;;;;36.63;27.67;;;;;;;1.27;53.67;98243.16;8470121;28;20198;-72